createdAt,value
2018-05-19T09:01:35.520Z,20.10
2018-05-19T09:02:08.059Z,20.10
2018-05-19T09:02:40.588Z,20.10
2018-05-19T09:03:13.128Z,20.20
2018-05-19T09:03:45.655Z,20.20
2018-05-19T09:04:18.312Z,20.20
2018-05-19T09:04:50.895Z,20.20
2018-05-19T09:05:23.440Z,20.20
2018-05-19T09:05:56.141Z,20.30
2018-05-19T09:06:28.784Z,20.40
2018-05-19T09:07:01.353Z,20.50
2018-05-19T09:07:34.080Z,20.50
2018-05-19T09:08:06.878Z,20.60
2018-05-19T09:08:39.430Z,20.60
2018-05-19T09:09:12.121Z,20.60
2018-05-19T09:09:44.657Z,20.70
2018-05-19T09:10:17.182Z,20.80
2018-05-19T09:10:49.749Z,20.80
2018-05-19T09:11:23.071Z,20.90
2018-05-19T09:11:55.623Z,20.90
2018-05-19T09:12:28.932Z,20.90
2018-05-19T09:13:01.517Z,20.90
2018-05-19T09:13:34.057Z,20.90
2018-05-19T09:14:07.804Z,21.10
2018-05-19T09:14:40.335Z,21.10
2018-05-19T09:15:12.952Z,21.10
2018-05-19T09:15:46.681Z,21.10
2018-05-19T09:16:54.274Z,21.10
2018-05-19T09:17:26.885Z,21.20
2018-05-19T09:17:59.829Z,21.00
2018-05-19T09:18:32.353Z,21.20
2018-05-19T09:19:06.292Z,21.20
2018-05-19T09:19:38.939Z,21.20
2018-05-19T09:20:12.214Z,21.20
2018-05-19T09:20:44.765Z,21.30
2018-05-19T09:21:17.971Z,21.30
2018-05-19T09:21:53.417Z,21.20
2018-05-19T09:22:25.971Z,21.20
2018-05-19T09:22:59.272Z,21.20
2018-05-19T09:23:32.258Z,21.20
2018-05-19T09:24:05.604Z,21.10
2018-05-19T09:24:39.776Z,21.00
2018-05-19T09:25:13.986Z,21.00
2018-05-19T09:25:47.439Z,20.90
2018-05-19T09:26:20.004Z,20.90
2018-05-19T09:26:53.285Z,21.00
2018-05-19T09:27:25.803Z,21.00
2018-05-19T09:27:59.532Z,21.00
2018-05-19T09:28:32.849Z,21.00
2018-05-19T09:29:05.424Z,20.90
